Time;durP1;ratioP1;P1;durP2;ratioP2;P2;SDS_P1;SDS_P2;PMS_P1;PMS_P2;Temp;Humidity;BMP_temperature;BMP_pressure;BME280_temperature;BME280_humidity;BME280_pressure;Samples;Min_cycle;Max_cycle;Signal;HPM_P1;HPM_P2
2022/06/01 00:01:36;;;;;;;;;;;;;;;14.53;61.16;100411.65;84799;1326;22837;-71
2022/06/01 00:03:43;;;;;;;;;;;;;;;14.50;62.11;100415.14;84809;1322;22675;-71
2022/06/01 00:05:50;;;;;;;;;;;;;;;14.44;63.34;100423.83;84784;1327;22575;-70
2022/06/01 00:07:56;;;;;;;;;;;;;;;14.41;64.13;100436.98;84825;1325;22557;-71
2022/06/01 00:10:03;;;;;;;;;;;;;;;14.37;64.46;100432.79;84795;1322;22556;-70
2022/06/01 00:12:11;;;;;;;;;;;;;;;14.33;65.17;100428.61;84806;1327;22565;-70
2022/06/01 00:14:17;;;;;;;;;;;;;;;14.29;65.67;100432.55;84789;1321;22723;-70
2022/06/01 00:16:23;;;;;;;;;;;;;;;14.21;66.44;100430.30;84792;1326;22555;-70
2022/06/01 00:18:29;;;;;;;;;;;;;;;14.14;66.86;100435.60;84773;1327;22554;-71
2022/06/01 00:20:35;;;;;;;;;;;;;;;14.08;67.42;100435.92;84812;1327;22571;-70
2022/06/01 00:22:41;;;;;;;;;;;;;;;14.02;68.24;100436.38;84803;1327;22575;-69
2022/06/01 00:24:47;;;;;;;;;;;;;;;13.98;68.65;100428.52;84818;1327;22559;-70
2022/06/01 00:26:53;;;;;;;;;;;;;;;13.93;68.85;100413.50;84787;1325;22566;-71
2022/06/01 00:28:59;;;;;;;;;;;;;;;13.91;69.38;100404.52;84814;1326;22561;-69
2022/06/01 00:31:05;;;;;;;;;;;;;;;13.87;70.23;100398.54;84773;1326;22635;-70
2022/06/01 00:33:11;;;;;;;;;;;;;;;13.84;70.72;100390.12;84794;1326;22578;-70
2022/06/01 00:35:19;;;;;;;;;;;;;;;13.81;70.89;100388.91;84787;1326;22562;-71
2022/06/01 00:37:25;;;;;;;;;;;;;;;13.78;71.26;100397.80;84811;1327;22677;-71
2022/06/01 00:39:31;;;;;;;;;;;;;;;13.75;71.94;100389.88;84801;1326;25686;-70
2022/06/01 00:41:37;;;;;;;;;;;;;;;13.74;72.30;100393.97;84796;1326;24235;-71
2022/06/01 00:43:45;;;;;;;;;;;;;;;13.72;72.67;100396.54;84803;1328;22756;-71
2022/06/01 00:45:51;;;;;;;;;;;;;;;13.71;72.92;100397.48;84785;1326;23023;-71
2022/06/01 00:47:57;;;;;;;;;;;;;;;13.68;73.06;100397.59;84798;1322;22787;-71
2022/06/01 00:50:05;;;;;;;;;;;;;;;13.64;73.32;100390.59;84808;1322;22607;-71
2022/06/01 00:52:11;;;;;;;;;;;;;;;13.61;73.86;100384.96;84813;1323;25929;-70
2022/06/01 00:54:17;;;;;;;;;;;;;;;13.61;73.73;100379.60;84805;1327;25229;-70
2022/06/01 00:56:25;;;;;;;;;;;;;;;13.61;74.24;100413.92;84798;1325;22603;-70
2022/06/01 00:58:33;;;;;;;;;;;;;;;13.62;74.29;100433.33;84797;1326;22560;-70
2022/06/01 01:00:41;;;;;;;;;;;;;;;13.60;74.58;100432.02;84788;1326;22574;-70
2022/06/01 01:02:47;;;;;;;;;;;;;;;13.59;74.83;100418.76;84816;1327;22757;-70
2022/06/01 01:04:53;;;;;;;;;;;;;;;13.57;74.93;100412.86;84806;1327;22565;-71
2022/06/01 01:06:59;;;;;;;;;;;;;;;13.56;75.42;100402.92;84799;1325;22592;-71
2022/06/01 01:09:05;;;;;;;;;;;;;;;13.56;75.58;100392.44;84800;1321;22591;-71
2022/06/01 01:11:12;;;;;;;;;;;;;;;13.56;75.65;100385.98;84786;1324;22559;-71
2022/06/01 01:13:18;;;;;;;;;;;;;;;13.56;75.59;100370.55;84819;1325;23928;-71
2022/06/01 01:15:25;;;;;;;;;;;;;;;13.56;75.93;100357.38;84792;1327;25223;-71
2022/06/01 01:17:31;;;;;;;;;;;;;;;13.57;75.92;100360.46;84782;1322;22580;-71
2022/06/01 01:19:38;;;;;;;;;;;;;;;13.59;76.28;100373.69;84799;1325;22588;-71
2022/06/01 01:21:47;;;;;;;;;;;;;;;13.60;76.93;100386.42;84775;1326;22596;-71
2022/06/01 01:23:59;;;;;;;;;;;;;;;13.60;76.80;100389.42;84811;1326;22600;-70
2022/06/01 01:26:05;;;;;;;;;;;;;;;13.62;77.27;100365.67;84783;1327;22818;-70
2022/06/01 01:28:11;;;;;;;;;;;;;;;13.64;77.50;100343.27;84815;1325;22569;-70
2022/06/01 01:30:30;;;;;;;;;;;;;;;13.67;78.01;100332.45;84808;1326;22559;-70
2022/06/01 01:32:36;;;;;;;;;;;;;;;13.66;77.77;100322.85;84791;1327;22563;-70
2022/06/01 01:34:42;;;;;;;;;;;;;;;13.68;77.83;100312.39;84806;1327;22815;-71
2022/06/01 01:36:49;;;;;;;;;;;;;;;13.70;77.73;100309.84;84802;1327;22565;-71
2022/06/01 01:38:58;;;;;;;;;;;;;;;13.72;78.17;100311.83;84788;1326;22571;-71
2022/06/01 01:41:09;;;;;;;;;;;;;;;13.72;77.49;100309.77;84792;1326;22566;-71
2022/06/01 01:43:15;;;;;;;;;;;;;;;13.75;77.37;100317.84;84822;1326;24207;-71
2022/06/01 01:45:24;;;;;;;;;;;;;;;13.78;77.53;100318.90;84790;1327;22622;-71
2022/06/01 01:47:31;;;;;;;;;;;;;;;13.79;77.47;100317.46;84817;1327;22558;-71
2022/06/01 01:49:38;;;;;;;;;;;;;;;13.80;77.56;100316.17;84770;1327;24357;-71
2022/06/01 01:51:44;;;;;;;;;;;;;;;13.83;77.38;100315.13;84785;1323;22789;-71
2022/06/01 01:53:50;;;;;;;;;;;;;;;13.87;77.16;100322.30;84791;1327;22630;-71
2022/06/01 01:56:01;;;;;;;;;;;;;;;13.90;77.17;100326.02;84797;1326;22571;-71
2022/06/01 01:58:12;;;;;;;;;;;;;;;13.91;77.47;100325.56;84806;1325;22597;-71
2022/06/01 02:00:19;;;;;;;;;;;;;;;13.91;77.62;100320.47;84786;1326;22850;-72
2022/06/01 02:02:28;;;;;;;;;;;;;;;13.91;77.74;100320.48;84795;1322;22580;-72
2022/06/01 02:07:13;;;;;;;;;;;;;;;13.92;77.88;100312.89;84798;1327;24362;-72
2022/06/01 02:09:19;;;;;;;;;;;;;;;13.93;78.07;100307.21;84795;1322;22564;-72
2022/06/01 02:14:00;;;;;;;;;;;;;;;13.96;78.04;100301.29;84582;1329;22565;-71
2022/06/01 02:16:06;;;;;;;;;;;;;;;13.99;78.12;100296.78;84701;1327;22564;-71
2022/06/01 02:18:16;;;;;;;;;;;;;;;14.02;77.89;100296.09;84674;1327;22667;-71
2022/06/01 02:20:27;;;;;;;;;;;;;;;14.04;77.98;100297.52;84813;1325;22660;-71
2022/06/01 02:22:34;;;;;;;;;;;;;;;14.07;78.09;100294.92;84817;1327;22579;-71
2022/06/01 02:24:40;;;;;;;;;;;;;;;14.06;77.87;100289.41;84801;1328;23029;-71
2022/06/01 02:26:46;;;;;;;;;;;;;;;14.08;77.68;100289.98;84790;1328;22573;-71
2022/06/01 02:28:52;;;;;;;;;;;;;;;14.13;77.66;100285.83;84802;1326;22513;-71
2022/06/01 02:30:58;;;;;;;;;;;;;;;14.16;77.50;100284.75;84803;1325;22576;-71
2022/06/01 02:33:05;;;;;;;;;;;;;;;14.16;77.26;100284.98;84674;1327;22562;-71
2022/06/01 02:35:12;;;;;;;;;;;;;;;14.13;77.12;100278.80;84788;1326;25364;-71
2022/06/01 02:37:18;;;;;;;;;;;;;;;14.07;76.96;100275.08;84791;1326;24387;-71
2022/06/01 02:39:24;;;;;;;;;;;;;;;14.03;76.85;100268.15;84801;1327;22551;-71
2022/06/01 02:43:54;;;;;;;;;;;;;;;13.93;76.68;100255.31;84779;1321;22945;-71
2022/06/01 02:46:00;;;;;;;;;;;;;;;13.89;76.44;100253.10;84821;1327;22585;-71
2022/06/01 02:48:07;;;;;;;;;;;;;;;13.85;76.35;100247.52;84821;1327;22572;-71
2022/06/01 02:50:14;;;;;;;;;;;;;;;13.81;76.40;100244.23;84807;1325;22575;-71
2022/06/01 02:52:21;;;;;;;;;;;;;;;13.76;76.59;100238.91;84789;1327;22654;-71
2022/06/01 02:54:28;;;;;;;;;;;;;;;13.70;76.43;100242.90;84810;1325;22590;-71
2022/06/01 02:56:34;;;;;;;;;;;;;;;13.66;76.60;100243.13;84793;1327;22569;-71
2022/06/01 02:58:40;;;;;;;;;;;;;;;13.63;76.52;100240.64;84799;1328;22583;-71
2022/06/01 03:00:46;;;;;;;;;;;;;;;13.59;76.46;100236.99;84804;1326;24309;-71
2022/06/01 03:02:54;;;;;;;;;;;;;;;13.56;77.00;100235.94;84798;1327;23817;-71
2022/06/01 03:04:59;;;;;;;;;;;;;;;13.53;76.85;100236.41;84786;1325;22828;-71
2022/06/01 03:07:06;;;;;;;;;;;;;;;13.51;77.54;100237.40;84804;1326;22576;-71
2022/06/01 03:09:12;;;;;;;;;;;;;;;13.48;77.69;100240.35;84806;1329;22567;-72
2022/06/01 03:11:18;;;;;;;;;;;;;;;13.48;77.38;100239.48;84801;1326;22575;-72
2022/06/01 03:13:24;;;;;;;;;;;;;;;13.51;77.25;100234.27;84807;1326;22561;-72
2022/06/01 03:15:30;;;;;;;;;;;;;;;13.53;77.22;100232.02;84797;1327;22570;-72
2022/06/01 03:17:36;;;;;;;;;;;;;;;13.56;77.52;100227.31;84798;1327;24389;-72
2022/06/01 03:19:42;;;;;;;;;;;;;;;13.56;77.28;100224.88;84775;1326;22570;-70
2022/06/01 03:21:48;;;;;;;;;;;;;;;13.57;77.36;100229.21;84804;1326;22572;-70
2022/06/01 03:23:55;;;;;;;;;;;;;;;13.58;77.77;100227.06;84810;1327;24343;-70
2022/06/01 03:26:01;;;;;;;;;;;;;;;13.59;77.70;100224.89;84809;1325;22770;-70
2022/06/01 03:28:08;;;;;;;;;;;;;;;13.60;77.46;100224.66;84788;1325;22572;-70
2022/06/01 03:30:16;;;;;;;;;;;;;;;13.61;77.53;100219.55;84798;1327;22566;-70
2022/06/01 03:32:22;;;;;;;;;;;;;;;13.63;77.38;100221.88;84771;1329;22959;-72
2022/06/01 03:34:30;;;;;;;;;;;;;;;13.64;77.64;100225.52;84804;1327;22562;-72
2022/06/01 03:36:36;;;;;;;;;;;;;;;13.63;77.42;100223.27;84798;1327;23868;-71
2022/06/01 03:38:42;;;;;;;;;;;;;;;13.62;77.32;100220.91;84808;1325;23856;-71
2022/06/01 03:40:48;;;;;;;;;;;;;;;13.61;77.36;100219.34;84789;1327;25930;-71
2022/06/01 03:42:54;;;;;;;;;;;;;;;13.61;77.23;100221.46;84810;1322;22605;-71
2022/06/01 03:47:23;;;;;;;;;;;;;;;13.58;77.23;100247.01;84772;1327;25289;-71
2022/06/01 03:49:29;;;;;;;;;;;;;;;13.56;77.23;100248.02;84813;1325;22588;-71
2022/06/01 03:51:36;;;;;;;;;;;;;;;13.54;77.54;100251.26;84793;1327;22601;-71
2022/06/01 03:53:42;;;;;;;;;;;;;;;13.53;77.63;100251.30;84780;1327;22581;-71
2022/06/01 03:55:48;;;;;;;;;;;;;;;13.53;77.72;100250.80;84801;1327;22804;-71
2022/06/01 03:57:54;;;;;;;;;;;;;;;13.53;77.86;100247.45;84817;1325;24246;-71
2022/06/01 04:00:00;;;;;;;;;;;;;;;13.54;78.28;100247.94;84806;1327;25259;-71
2022/06/01 04:02:20;;;;;;;;;;;;;;;13.55;78.32;100248.25;84662;1331;22653;-71
2022/06/01 04:04:45;;;;;;;;;;;;;;;13.56;78.38;100246.58;84648;1330;22592;-71
2022/06/01 04:07:10;;;;;;;;;;;;;;;13.60;78.54;100242.54;84632;1330;22577;-71
2022/06/01 04:09:35;;;;;;;;;;;;;;;13.66;78.67;100240.45;84655;1332;22835;-71
2022/06/01 04:12:00;;;;;;;;;;;;;;;13.72;78.44;100242.06;84629;1330;22767;-71
2022/06/01 04:14:06;;;;;;;;;;;;;;;13.77;78.45;100237.62;84688;1331;25181;-71
2022/06/01 04:16:12;;;;;;;;;;;;;;;13.83;78.14;100242.02;84692;1332;23137;-71
2022/06/01 04:18:18;;;;;;;;;;;;;;;13.87;78.39;100241.61;84684;1328;22626;-71
2022/06/01 04:20:24;;;;;;;;;;;;;;;13.88;77.91;100240.13;84662;1332;22558;-71
2022/06/01 04:22:30;;;;;;;;;;;;;;;13.91;78.26;100241.23;84677;1332;22564;-71
2022/06/01 04:24:36;;;;;;;;;;;;;;;13.95;78.47;100240.15;84653;1332;22600;-71
2022/06/01 04:26:42;;;;;;;;;;;;;;;13.97;78.48;100241.13;84637;1325;22699;-71
2022/06/01 04:28:48;;;;;;;;;;;;;;;13.97;78.62;100245.65;84651;1332;23030;-71
2022/06/01 04:30:54;;;;;;;;;;;;;;;13.96;78.93;100246.61;84645;1330;22569;-71
2022/06/01 04:33:00;;;;;;;;;;;;;;;13.97;79.19;100241.61;84638;1332;22583;-71
2022/06/01 04:35:08;;;;;;;;;;;;;;;13.99;79.47;100240.98;84762;1325;22605;-71
2022/06/01 04:37:31;;;;;;;;;;;;;;;14.02;79.43;100246.63;84820;1327;22608;-71
2022/06/01 04:39:37;;;;;;;;;;;;;;;14.04;79.26;100248.23;84815;1328;22846;-71
2022/06/01 04:41:43;;;;;;;;;;;;;;;14.08;79.43;100252.05;84795;1326;22789;-71
2022/06/01 04:43:49;;;;;;;;;;;;;;;14.12;79.59;100249.02;84806;1321;24388;-71
2022/06/01 04:45:56;;;;;;;;;;;;;;;14.18;79.68;100249.24;84803;1325;24370;-71
2022/06/01 04:48:02;;;;;;;;;;;;;;;14.22;79.90;100247.97;84793;1327;22589;-71
2022/06/01 04:50:12;;;;;;;;;;;;;;;14.26;80.04;100247.19;84804;1327;22619;-77
2022/06/01 04:52:18;;;;;;;;;;;;;;;14.31;80.09;100246.24;84804;1321;22963;-71
2022/06/01 04:54:24;;;;;;;;;;;;;;;14.36;80.08;100243.52;84784;1328;22845;-71
2022/06/01 04:56:30;;;;;;;;;;;;;;;14.39;79.78;100244.56;84816;1327;22559;-70
2022/06/01 04:58:36;;;;;;;;;;;;;;;14.45;79.96;100244.77;84820;1328;23997;-71
2022/06/01 05:00:43;;;;;;;;;;;;;;;14.49;80.01;100240.56;84797;1328;22937;-72
2022/06/01 05:02:49;;;;;;;;;;;;;;;14.51;80.06;100239.74;84803;1325;22566;-72
2022/06/01 05:04:55;;;;;;;;;;;;;;;14.54;80.00;100234.67;84797;1327;22551;-72
2022/06/01 05:07:02;;;;;;;;;;;;;;;14.57;79.95;100230.27;84816;1327;22558;-71
2022/06/01 05:09:08;;;;;;;;;;;;;;;14.59;79.57;100226.46;84777;1327;22546;-71
2022/06/01 05:11:18;;;;;;;;;;;;;;;14.58;79.01;100232.11;84794;1327;22666;-71
2022/06/01 05:13:24;;;;;;;;;;;;;;;14.60;79.38;100244.16;84825;1326;22574;-71
2022/06/01 05:15:30;;;;;;;;;;;;;;;14.61;79.45;100263.77;84806;1328;23804;-72
2022/06/01 05:17:36;;;;;;;;;;;;;;;14.60;79.65;100271.65;84812;1327;22564;-72
2022/06/01 05:19:42;;;;;;;;;;;;;;;14.58;79.53;100277.73;84813;1327;22848;-71
2022/06/01 05:21:47;;;;;;;;;;;;;;;14.57;79.48;100278.14;84824;1327;22912;-71
2022/06/01 05:23:53;;;;;;;;;;;;;;;14.59;79.60;100274.75;84811;1327;24450;-71
2022/06/01 05:25:59;;;;;;;;;;;;;;;14.58;79.67;100274.95;84802;1327;23861;-71
2022/06/01 05:28:06;;;;;;;;;;;;;;;14.57;79.72;100279.36;84804;1327;22731;-71
2022/06/01 05:30:14;;;;;;;;;;;;;;;14.58;79.80;100266.53;84764;1327;22666;-71
2022/06/01 05:32:20;;;;;;;;;;;;;;;14.60;79.89;100247.11;84784;1326;23907;-71
2022/06/01 05:34:26;;;;;;;;;;;;;;;14.62;79.94;100242.42;84788;1326;22570;-71
2022/06/01 05:36:32;;;;;;;;;;;;;;;14.65;80.19;100250.48;84700;1327;22586;-71
2022/06/01 05:38:37;;;;;;;;;;;;;;;14.72;80.42;100253.83;84766;1327;22590;-72
2022/06/01 05:40:43;;;;;;;;;;;;;;;14.77;80.48;100256.33;84812;1327;22572;-72
2022/06/01 05:42:49;;;;;;;;;;;;;;;14.82;80.62;100256.02;84762;1326;22565;-72
2022/06/01 05:44:56;;;;;;;;;;;;;;;14.86;80.43;100244.94;84808;1326;22569;-72
2022/06/01 05:47:03;;;;;;;;;;;;;;;14.90;80.59;100230.06;84797;1326;25432;-72
2022/06/01 05:49:09;;;;;;;;;;;;;;;14.96;80.57;100214.09;84792;1326;22559;-72
2022/06/01 05:51:15;;;;;;;;;;;;;;;15.00;80.52;100196.14;84796;1326;22592;-72
2022/06/01 05:53:21;;;;;;;;;;;;;;;15.03;80.51;100173.11;84795;1326;22567;-70
2022/06/01 05:55:27;;;;;;;;;;;;;;;15.07;80.45;100164.63;84790;1326;22611;-72
2022/06/01 05:57:34;;;;;;;;;;;;;;;15.10;80.36;100162.36;84801;1326;25230;-72
2022/06/01 05:59:40;;;;;;;;;;;;;;;15.13;80.36;100159.52;84800;1326;22564;-72
2022/06/01 06:01:46;;;;;;;;;;;;;;;15.13;80.02;100147.05;84793;1326;22583;-72
2022/06/01 06:03:52;;;;;;;;;;;;;;;15.12;80.06;100143.05;84799;1325;22670;-72
2022/06/01 06:06:14;;;;;;;;;;;;;;;15.14;80.14;100142.77;84787;1325;22578;-72
2022/06/01 06:08:20;;;;;;;;;;;;;;;15.18;80.07;100162.38;84796;1327;22676;-72
2022/06/01 06:10:27;;;;;;;;;;;;;;;15.22;80.12;100202.38;84808;1326;22592;-72
2022/06/01 06:12:33;;;;;;;;;;;;;;;15.25;80.01;100226.14;84791;1326;22971;-73
2022/06/01 06:14:40;;;;;;;;;;;;;;;15.25;79.98;100234.56;84799;1325;22554;-72
2022/06/01 06:16:46;;;;;;;;;;;;;;;15.22;79.71;100243.69;84797;1323;23029;-73
2022/06/01 06:18:56;;;;;;;;;;;;;;;15.18;79.70;100224.74;84796;1326;22556;-72
2022/06/01 06:21:02;;;;;;;;;;;;;;;15.17;79.52;100205.69;84774;1326;22933;-72
2022/06/01 06:23:08;;;;;;;;;;;;;;;15.15;79.27;100196.84;84809;1322;24336;-72
2022/06/01 06:25:14;;;;;;;;;;;;;;;15.14;79.48;100196.71;84785;1326;22571;-74
2022/06/01 06:27:20;;;;;;;;;;;;;;;15.13;79.39;100198.52;84805;1326;22940;-72
2022/06/01 06:29:26;;;;;;;;;;;;;;;15.12;79.54;100224.25;84795;1326;22575;-72
2022/06/01 06:31:32;;;;;;;;;;;;;;;15.11;79.94;100233.42;84791;1327;22642;-72
2022/06/01 06:33:40;;;;;;;;;;;;;;;15.10;79.94;100244.59;84830;1327;22562;-72
2022/06/01 06:35:46;;;;;;;;;;;;;;;15.10;80.01;100256.88;84814;1325;22610;-72
2022/06/01 06:37:52;;;;;;;;;;;;;;;15.09;79.84;100264.14;84802;1327;24249;-72
2022/06/01 06:39:58;;;;;;;;;;;;;;;15.08;79.91;100270.37;84791;1325;25412;-72
2022/06/01 06:42:04;;;;;;;;;;;;;;;15.05;79.90;100278.61;84820;1326;22587;-72
2022/06/01 06:44:10;;;;;;;;;;;;;;;15.03;80.06;100275.23;84793;1327;22966;-72
2022/06/01 06:46:17;;;;;;;;;;;;;;;15.02;80.12;100274.73;84802;1325;22571;-72
2022/06/01 06:48:23;;;;;;;;;;;;;;;15.03;80.37;100271.34;84802;1327;22658;-72
2022/06/01 06:50:29;;;;;;;;;;;;;;;15.03;80.30;100263.60;84796;1326;22593;-72
2022/06/01 06:52:35;;;;;;;;;;;;;;;15.03;80.46;100254.30;84808;1325;22672;-72
2022/06/01 06:54:41;;;;;;;;;;;;;;;15.03;80.47;100255.37;84804;1322;22711;-71
2022/06/01 06:56:47;;;;;;;;;;;;;;;15.02;80.60;100256.80;84821;1321;22904;-72
2022/06/01 06:58:53;;;;;;;;;;;;;;;15.03;80.59;100264.52;84829;1322;22583;-72
2022/06/01 07:00:59;;;;;;;;;;;;;;;15.03;80.33;100263.27;84798;1326;22559;-72
2022/06/01 07:03:06;;;;;;;;;;;;;;;15.01;80.45;100256.20;84796;1327;22569;-72
2022/06/01 07:06:08;;;;;;;;;;;;;;;15.00;80.56;100258.37;84811;1327;22562;-72
2022/06/01 07:07:39;;;;;;;;;;;;;;;15.00;80.75;100255.70;84800;1326;25408;-72
2022/06/01 07:09:44;;;;;;;;;;;;;;;15.02;80.68;100245.94;84812;1326;22558;-72
2022/06/01 07:11:50;;;;;;;;;;;;;;;15.04;80.64;100246.20;84788;1327;22588;-72
2022/06/01 07:13:56;;;;;;;;;;;;;;;15.07;80.83;100260.73;84815;1325;22646;-72
2022/06/01 07:16:05;;;;;;;;;;;;;;;15.12;80.95;100268.52;84803;1328;22589;-72
2022/06/01 07:18:11;;;;;;;;;;;;;;;15.22;81.23;100267.08;84794;1327;25448;-72
2022/06/01 07:20:17;;;;;;;;;;;;;;;15.33;81.30;100269.23;84802;1326;22574;-72
2022/06/01 07:22:23;;;;;;;;;;;;;;;15.42;81.10;100266.05;84789;1327;22568;-72
2022/06/01 07:24:29;;;;;;;;;;;;;;;15.53;81.33;100263.83;84783;1326;24260;-72
2022/06/01 07:26:37;;;;;;;;;;;;;;;15.59;80.64;100257.61;84792;1327;22911;-72
2022/06/01 07:28:43;;;;;;;;;;;;;;;15.64;80.81;100246.61;84797;1326;22605;-72
2022/06/01 07:30:49;;;;;;;;;;;;;;;15.70;80.20;100248.52;84792;1326;22563;-72
2022/06/01 07:32:55;;;;;;;;;;;;;;;15.77;80.18;100252.70;84816;1322;22574;-72
2022/06/01 07:35:03;;;;;;;;;;;;;;;15.86;80.55;100254.64;84797;1326;25418;-71
2022/06/01 07:44:22;;;;;;;;;;;;;;;16.33;79.34;100251.47;84785;1327;22570;-72
2022/06/01 07:46:27;;;;;;;;;;;;;;;16.42;78.93;100259.02;84796;1327;22565;-70
2022/06/01 07:48:33;;;;;;;;;;;;;;;16.48;78.80;100255.60;84799;1327;22547;-72
2022/06/01 07:50:39;;;;;;;;;;;;;;;16.52;78.20;100247.78;84810;1325;23573;-72
2022/06/01 07:52:45;;;;;;;;;;;;;;;16.56;78.18;100240.70;84796;1322;22841;-72
2022/06/01 07:54:54;;;;;;;;;;;;;;;16.60;77.80;100238.16;84798;1326;22565;-72
2022/06/01 07:57:00;;;;;;;;;;;;;;;16.58;77.17;100236.64;84789;1323;22576;-71
2022/06/01 07:59:06;;;;;;;;;;;;;;;16.57;77.07;100240.10;84812;1325;22709;-71
2022/06/01 08:01:12;;;;;;;;;;;;;;;16.59;77.49;100247.86;84809;1322;22844;-71
2022/06/01 08:03:20;;;;;;;;;;;;;;;16.61;77.28;100255.83;84822;1327;22574;-71
2022/06/01 08:05:26;;;;;;;;;;;;;;;16.65;77.40;100258.92;84784;1326;24289;-72
2022/06/01 08:07:33;;;;;;;;;;;;;;;16.69;77.35;100257.58;84793;1325;22583;-72
2022/06/01 08:09:39;;;;;;;;;;;;;;;16.70;77.22;100262.83;84784;1328;22574;-72
2022/06/01 08:14:09;;;;;;;;;;;;;;;16.72;76.84;100260.08;84809;1327;22593;-73
2022/06/01 08:16:15;;;;;;;;;;;;;;;16.73;76.61;100260.90;84785;1327;25421;-72
2022/06/01 08:18:22;;;;;;;;;;;;;;;16.75;76.85;100263.95;84784;1326;25400;-71
2022/06/01 08:20:29;;;;;;;;;;;;;;;16.74;76.05;100262.43;84774;1326;22701;-71
2022/06/01 08:22:36;;;;;;;;;;;;;;;16.71;76.20;100263.30;84795;1325;25406;-71
2022/06/01 08:24:42;;;;;;;;;;;;;;;16.68;76.31;100257.48;84797;1325;22826;-71
2022/06/01 08:26:48;;;;;;;;;;;;;;;16.66;76.20;100258.36;84804;1325;22619;-72
2022/06/01 08:28:54;;;;;;;;;;;;;;;16.63;76.04;100258.33;84790;1323;22583;-72
2022/06/01 08:31:00;;;;;;;;;;;;;;;16.57;75.78;100252.79;84803;1327;22603;-73
2022/06/01 08:33:06;;;;;;;;;;;;;;;16.53;76.47;100248.10;84812;1327;22582;-73
2022/06/01 08:35:13;;;;;;;;;;;;;;;16.57;76.47;100249.07;84789;1327;22590;-73
2022/06/01 08:37:19;;;;;;;;;;;;;;;16.65;76.95;100246.43;84795;1326;22562;-71
2022/06/01 08:39:25;;;;;;;;;;;;;;;16.81;77.07;100245.23;84802;1325;25418;-71
2022/06/01 08:41:33;;;;;;;;;;;;;;;16.96;76.69;100244.23;84799;1326;25408;-71
2022/06/01 08:43:41;;;;;;;;;;;;;;;17.10;77.04;100246.98;84801;1325;22911;-72
2022/06/01 08:45:51;;;;;;;;;;;;;;;17.31;77.42;100246.65;84786;1325;22666;-70
2022/06/01 08:47:57;;;;;;;;;;;;;;;17.55;77.03;100247.48;84797;1326;22592;-72
2022/06/01 08:50:05;;;;;;;;;;;;;;;17.74;76.54;100243.67;84763;1327;22582;-71
2022/06/01 08:52:11;;;;;;;;;;;;;;;17.80;75.82;100229.71;84794;1325;22566;-71
2022/06/01 08:54:17;;;;;;;;;;;;;;;17.77;75.14;100224.42;84797;1327;22620;-71
2022/06/01 08:56:28;;;;;;;;;;;;;;;17.70;73.34;100214.70;84791;1326;22577;-71
2022/06/01 08:58:38;;;;;;;;;;;;;;;17.52;72.70;100212.19;84807;1327;24252;-72
2022/06/01 09:00:48;;;;;;;;;;;;;;;17.39;73.49;100209.96;84796;1327;22554;-72
2022/06/01 09:03:02;;;;;;;;;;;;;;;17.29;72.84;100206.77;84798;1325;22566;-72
2022/06/01 09:05:10;;;;;;;;;;;;;;;17.19;73.81;100206.55;84802;1326;25486;-71
2022/06/01 09:07:23;;;;;;;;;;;;;;;17.17;74.74;100212.34;84804;1325;22557;-71
2022/06/01 09:09:34;;;;;;;;;;;;;;;17.24;75.64;100212.90;84791;1325;22581;-71
2022/06/01 09:11:40;;;;;;;;;;;;;;;17.35;76.13;100221.16;84810;1327;22640;-70
2022/06/01 09:13:52;;;;;;;;;;;;;;;17.44;76.20;100223.87;84784;1325;22577;-70
2022/06/01 09:15:59;;;;;;;;;;;;;;;17.51;76.45;100233.78;84806;1322;22560;-70
2022/06/01 09:18:06;;;;;;;;;;;;;;;17.60;76.60;100235.67;84765;1327;22554;-70
2022/06/01 09:22:53;;;;;;;;;;;;;;;17.76;75.80;100236.14;84550;1333;22872;-70
2022/06/01 09:24:59;;;;;;;;;;;;;;;17.88;75.47;100236.17;84676;1327;22581;-71
2022/06/01 09:27:07;;;;;;;;;;;;;;;18.00;75.61;100235.48;84799;1323;22587;-70
2022/06/01 09:29:13;;;;;;;;;;;;;;;18.13;75.03;100232.31;84794;1327;22560;-72
2022/06/01 09:31:27;;;;;;;;;;;;;;;18.20;74.89;100229.14;84788;1325;22606;-71
2022/06/01 09:33:33;;;;;;;;;;;;;;;18.24;74.29;100230.77;84803;1326;22714;-71
2022/06/01 09:35:42;;;;;;;;;;;;;;;18.28;73.67;100239.02;84796;1326;22576;-71
2022/06/01 09:37:48;;;;;;;;;;;;;;;18.33;74.11;100248.88;84760;1322;22565;-72
2022/06/01 09:39:55;;;;;;;;;;;;;;;18.36;74.03;100241.92;84793;1325;22578;-71
2022/06/01 09:42:25;;;;;;;;;;;;;;;18.42;73.93;100240.27;84799;1327;22799;-71
2022/06/01 09:44:34;;;;;;;;;;;;;;;18.57;74.12;100245.69;84796;1327;22828;-72
2022/06/01 09:46:52;;;;;;;;;;;;;;;18.84;74.31;100241.45;84787;1322;22914;-73
2022/06/01 09:48:58;;;;;;;;;;;;;;;19.28;72.82;100239.90;84787;1321;22628;-73
2022/06/01 09:51:12;;;;;;;;;;;;;;;19.61;73.23;100245.85;84809;1327;22553;-73
2022/06/01 09:53:20;;;;;;;;;;;;;;;19.91;71.24;100248.64;84770;1326;24178;-72
2022/06/01 09:55:27;;;;;;;;;;;;;;;20.00;70.59;100249.14;84794;1321;22667;-73
2022/06/01 09:57:38;;;;;;;;;;;;;;;20.36;71.22;100249.69;84798;1325;22564;-72
2022/06/01 10:07:06;;;;;;;;;;;;;;;21.47;67.50;100256.24;84802;1325;25524;-73
2022/06/01 10:09:13;;;;;;;;;;;;;;;21.50;65.89;100254.07;84796;1326;22598;-74
2022/06/01 10:11:36;;;;;;;;;;;;;;;21.39;64.98;100252.48;84784;1322;22718;-73
2022/06/01 10:13:52;;;;;;;;;;;;;;;21.39;65.40;100254.96;84787;1322;22587;-73
2022/06/01 10:15:58;;;;;;;;;;;;;;;21.50;65.14;100260.10;84789;1325;22562;-72
2022/06/01 10:18:05;;;;;;;;;;;;;;;21.59;64.69;100266.55;84776;1326;22588;-72
2022/06/01 10:20:16;;;;;;;;;;;;;;;21.82;64.00;100267.39;84796;1325;25897;-72
2022/06/01 10:22:27;;;;;;;;;;;;;;;22.04;64.14;100267.27;84796;1325;25438;-72
2022/06/01 10:24:35;;;;;;;;;;;;;;;22.10;62.45;100264.78;84701;1327;22591;-72
2022/06/01 10:26:44;;;;;;;;;;;;;;;22.17;62.64;100265.86;84767;1326;22605;-73
2022/06/01 10:28:53;;;;;;;;;;;;;;;22.34;61.86;100258.09;84686;1327;22569;-73
2022/06/01 10:31:01;;;;;;;;;;;;;;;22.40;61.42;100258.77;84783;1327;22608;-73
2022/06/01 10:33:10;;;;;;;;;;;;;;;22.54;60.84;100258.09;84767;1327;24035;-73
2022/06/01 10:35:21;;;;;;;;;;;;;;;22.57;61.08;100255.86;84805;1326;24249;-73
2022/06/01 10:37:31;;;;;;;;;;;;;;;22.53;60.07;100255.34;84807;1326;22561;-70
2022/06/01 10:39:38;;;;;;;;;;;;;;;22.39;59.84;100257.98;84795;1327;24203;-72
2022/06/01 10:41:49;;;;;;;;;;;;;;;22.45;60.41;100254.65;84794;1327;25330;-72
2022/06/01 10:43:59;;;;;;;;;;;;;;;22.57;60.61;100254.09;84798;1325;25230;-72
2022/06/01 10:46:12;;;;;;;;;;;;;;;22.72;60.18;100250.98;84792;1326;25406;-72
2022/06/01 10:48:24;;;;;;;;;;;;;;;22.73;59.47;100246.38;84778;1327;22586;-71
2022/06/01 10:50:32;;;;;;;;;;;;;;;22.70;59.62;100243.84;84799;1327;25949;-71
2022/06/01 10:52:41;;;;;;;;;;;;;;;22.68;59.48;100245.62;84789;1327;24344;-72
2022/06/01 10:54:52;;;;;;;;;;;;;;;22.73;59.48;100243.59;84750;1325;22599;-72
2022/06/01 10:56:58;;;;;;;;;;;;;;;22.79;59.44;100239.84;84800;1327;24225;-73
2022/06/01 10:59:07;;;;;;;;;;;;;;;22.82;59.30;100242.02;84791;1327;25419;-73
2022/06/01 11:01:18;;;;;;;;;;;;;;;22.85;58.50;100245.14;84792;1325;22562;-73
2022/06/01 11:03:52;;;;;;;;;;;;;;;22.93;58.70;100242.98;84800;1325;22553;-73
2022/06/01 11:06:05;;;;;;;;;;;;;;;22.97;58.31;100244.61;84750;1326;22635;-73
2022/06/01 11:08:21;;;;;;;;;;;;;;;23.08;57.98;100241.30;84784;1328;25283;-73
2022/06/01 11:10:34;;;;;;;;;;;;;;;23.19;57.69;100238.84;84788;1323;22561;-72
2022/06/01 11:12:52;;;;;;;;;;;;;;;23.24;56.77;100242.85;84785;1325;22577;-72
2022/06/01 11:15:09;;;;;;;;;;;;;;;23.21;56.95;100240.05;84797;1327;22689;-72
2022/06/01 11:17:22;;;;;;;;;;;;;;;23.20;55.43;100238.05;84797;1325;22679;-72
2022/06/01 11:19:36;;;;;;;;;;;;;;;23.12;55.01;100236.77;84799;1326;22953;-72
2022/06/01 11:21:45;;;;;;;;;;;;;;;23.06;55.04;100235.56;84757;1326;22657;-72
2022/06/01 11:24:00;;;;;;;;;;;;;;;22.95;55.37;100226.81;84795;1325;22668;-71
2022/06/01 11:26:12;;;;;;;;;;;;;;;22.91;55.56;100220.95;84773;1324;22573;-72